createdAt,value
2023-05-02T00:01:37.345Z,100.00
2023-05-02T00:06:42.521Z,100.00
2023-05-02T00:11:49.073Z,100.00
2023-05-02T00:16:53.069Z,100.00
2023-05-02T00:21:57.023Z,100.00
2023-05-02T00:27:02.432Z,100.00
2023-05-02T00:32:07.509Z,100.00
2023-05-02T00:37:11.691Z,100.00
2023-05-02T00:42:18.752Z,100.00
2023-05-02T00:47:22.741Z,100.00
2023-05-02T00:52:28.704Z,100.00
2023-05-02T00:57:37.726Z,100.00
2023-05-02T01:02:52.236Z,100.00
2023-05-02T01:08:09.189Z,100.00
2023-05-02T01:13:21.984Z,100.00
2023-05-02T01:18:29.319Z,100.00
2023-05-02T01:23:36.713Z,100.00
2023-05-02T01:29:03.717Z,100.00
2023-05-02T01:34:11.896Z,100.00
2023-05-02T01:39:21.678Z,100.00
2023-05-02T01:44:28.450Z,100.00
2023-05-02T01:49:35.324Z,100.00
2023-05-02T01:54:41.836Z,100.00
2023-05-02T01:59:49.598Z,100.00
2023-05-02T02:04:56.029Z,100.00
2023-05-02T02:10:02.124Z,100.00
2023-05-02T02:15:15.019Z,100.00
2023-05-02T02:20:20.018Z,100.00
2023-05-02T02:25:25.641Z,100.00
2023-05-02T02:30:31.212Z,100.00
2023-05-02T02:35:41.168Z,100.00
2023-05-02T02:40:49.272Z,100.00
2023-05-02T02:46:03.157Z,100.00
2023-05-02T02:51:14.156Z,100.00
2023-05-02T02:56:23.569Z,100.00
2023-05-02T03:01:32.522Z,100.00
2023-05-02T03:06:36.684Z,100.00
2023-05-02T03:11:42.088Z,100.00
2023-05-02T03:16:50.925Z,100.00
2023-05-02T03:21:54.990Z,100.00
2023-05-02T03:27:00.034Z,100.00
2023-05-02T03:32:11.585Z,100.00
2023-05-02T03:37:17.601Z,100.00
2023-05-02T03:48:01.714Z,100.00
2023-05-02T03:53:08.001Z,100.00
2023-05-02T03:58:21.019Z,100.00
2023-05-02T04:03:29.303Z,100.00
2023-05-02T04:08:35.735Z,100.00
2023-05-02T04:13:40.108Z,100.00
2023-05-02T04:18:45.880Z,100.00
2023-05-02T04:23:51.557Z,100.00
2023-05-02T04:28:56.160Z,100.00
2023-05-02T04:34:01.713Z,100.00
2023-05-02T04:39:11.618Z,100.00
2023-05-02T04:44:20.819Z,100.00
2023-05-02T04:49:26.779Z,100.00
2023-05-02T04:54:30.781Z,100.00
2023-05-02T04:59:36.865Z,100.00
2023-05-02T05:04:42.245Z,88.97
2023-05-02T05:09:46.849Z,83.24
2023-05-02T05:14:51.742Z,80.29
2023-05-02T05:20:01.207Z,78.92
2023-05-02T05:25:06.666Z,74.65
2023-05-02T05:30:11.566Z,69.74
2023-05-02T05:35:17.744Z,69.19
2023-05-02T05:40:22.462Z,66.72
2023-05-02T05:45:31.983Z,66.57
2023-05-02T05:50:37.398Z,63.97
2023-05-02T05:55:42.499Z,64.74
2023-05-02T06:00:47.218Z,62.87
2023-05-02T06:05:52.694Z,59.76
2023-05-02T06:10:56.762Z,59.79
2023-05-02T06:16:02.918Z,58.64
2023-05-02T06:21:08.872Z,59.44
2023-05-02T06:26:12.924Z,57.27
2023-05-02T06:31:17.600Z,58.62
2023-05-02T06:36:22.961Z,54.74
2023-05-02T06:41:26.839Z,56.24
2023-05-02T06:46:31.962Z,56.87
2023-05-02T06:51:37.376Z,53.63
2023-05-02T06:56:41.330Z,54.44
2023-05-02T07:01:45.623Z,49.43
2023-05-02T07:07:10.900Z,51.81
2023-05-02T07:12:14.867Z,51.43
2023-05-02T07:17:19.008Z,49.01
2023-05-02T07:22:28.122Z,49.57
2023-05-02T07:27:31.869Z,47.23
2023-05-02T07:32:35.732Z,46.92
2023-05-02T07:37:42.152Z,47.88
2023-05-02T07:42:46.855Z,46.30
2023-05-02T07:47:50.796Z,46.07
2023-05-02T07:52:56.594Z,45.99
2023-05-02T07:58:07.169Z,48.24
2023-05-02T08:03:10.951Z,46.31
2023-05-02T08:08:16.165Z,43.93
2023-05-02T08:13:20.154Z,45.93
2023-05-02T08:18:24.089Z,41.92
2023-05-02T08:23:29.516Z,43.23
2023-05-02T08:28:33.412Z,42.12
2023-05-02T08:33:37.396Z,40.40
2023-05-02T08:38:42.836Z,41.31
2023-05-02T08:43:52.366Z,44.37
2023-05-02T08:49:02.269Z,41.84
2023-05-02T08:54:10.736Z,41.23
2023-05-02T08:59:16.288Z,41.47
2023-05-02T09:04:25.284Z,40.78
2023-05-02T09:09:31.814Z,40.29
2023-05-02T09:14:36.158Z,41.72
2023-05-02T09:19:40.131Z,41.82
2023-05-02T09:24:46.021Z,34.70
2023-05-02T09:29:55.351Z,40.14
2023-05-02T09:35:09.127Z,36.70
2023-05-02T09:40:18.391Z,41.30
2023-05-02T09:45:24.537Z,37.47
2023-05-02T09:50:36.369Z,41.09
2023-05-02T09:55:42.138Z,36.48
2023-05-02T10:00:46.593Z,39.40
2023-05-02T10:05:51.061Z,35.00
2023-05-02T10:10:57.613Z,36.73
2023-05-02T10:16:02.792Z,33.28
2023-05-02T10:26:40.945Z,34.13
2023-05-02T10:31:50.422Z,33.18
2023-05-02T10:36:54.822Z,36.84
2023-05-02T10:42:03.204Z,36.33
2023-05-02T10:47:20.371Z,33.92
2023-05-02T10:52:29.209Z,34.29
2023-05-02T10:57:34.709Z,36.20
2023-05-02T11:08:32.659Z,34.36
2023-05-02T11:13:52.848Z,35.63
2023-05-02T11:19:04.448Z,30.82
2023-05-02T11:24:39.454Z,32.61
2023-05-02T11:29:58.225Z,33.32
2023-05-02T11:35:04.476Z,29.94
2023-05-02T11:40:34.119Z,33.23
2023-05-02T11:45:43.564Z,32.91
2023-05-02T11:50:50.483Z,29.06
2023-05-02T11:55:56.675Z,33.29
2023-05-02T12:01:13.282Z,33.36
2023-05-02T12:06:18.945Z,32.34
2023-05-02T12:11:24.752Z,36.13
2023-05-02T12:16:30.538Z,35.26
2023-05-02T12:21:34.921Z,35.07
2023-05-02T12:26:38.863Z,36.00
2023-05-02T12:31:52.317Z,33.47
2023-05-02T12:36:56.810Z,36.65
2023-05-02T12:42:02.529Z,34.80
2023-05-02T12:47:08.352Z,35.14
2023-05-02T12:52:12.260Z,38.41
2023-05-02T12:57:26.303Z,33.17
2023-05-02T13:02:32.030Z,38.58
2023-05-02T13:07:40.508Z,34.59
2023-05-02T13:12:45.122Z,37.29
2023-05-02T13:17:55.745Z,32.79
2023-05-02T13:22:59.718Z,35.38
2023-05-02T13:28:03.765Z,34.60
2023-05-02T13:33:10.660Z,36.28
2023-05-02T13:38:14.338Z,32.89
2023-05-02T13:43:42.982Z,36.45
2023-05-02T13:48:48.250Z,34.62
2023-05-02T13:53:52.167Z,37.36
2023-05-02T13:58:56.524Z,36.16
2023-05-02T14:04:06.983Z,37.32
2023-05-02T14:09:11.395Z,35.90
2023-05-02T14:14:18.665Z,31.80
2023-05-02T14:19:23.972Z,33.29
2023-05-02T14:24:28.004Z,34.56
2023-05-02T14:29:31.952Z,33.78
2023-05-02T14:34:37.260Z,33.34
2023-05-02T14:39:46.309Z,34.76
2023-05-02T14:44:54.645Z,33.45
2023-05-02T14:50:00.208Z,35.60
2023-05-02T14:55:04.744Z,36.28
2023-05-02T15:00:11.490Z,34.82
2023-05-02T15:05:16.974Z,35.43
2023-05-02T15:10:21.187Z,35.49
2023-05-02T15:15:25.459Z,36.25
2023-05-02T15:20:30.800Z,36.68
2023-05-02T15:31:02.186Z,38.14
2023-05-02T15:36:08.221Z,37.84
2023-05-02T15:41:12.306Z,38.72
2023-05-02T15:46:16.256Z,37.53
2023-05-02T15:51:21.578Z,38.55
2023-05-02T15:56:25.756Z,37.71
2023-05-02T16:01:29.688Z,37.56
2023-05-02T16:06:35.119Z,39.35
2023-05-02T16:11:39.209Z,40.60
2023-05-02T16:16:44.774Z,40.53
2023-05-02T16:21:50.118Z,42.13
2023-05-02T16:26:54.029Z,42.80
2023-05-02T16:31:59.897Z,43.51
2023-05-02T16:37:05.552Z,44.37
2023-05-02T16:42:09.573Z,45.49
2023-05-02T16:47:13.536Z,44.49
2023-05-02T16:52:22.099Z,44.04
2023-05-02T16:57:26.051Z,44.54
2023-05-02T17:02:30.062Z,44.10
2023-05-02T17:07:35.499Z,44.04
2023-05-02T17:12:39.438Z,44.70
2023-05-02T17:17:43.475Z,46.07
2023-05-02T17:28:16.696Z,46.60
2023-05-02T17:33:20.597Z,45.45
2023-05-02T17:38:26.972Z,44.66
2023-05-02T17:43:30.977Z,46.94
2023-05-02T17:48:35.278Z,47.89
2023-05-02T17:53:40.682Z,48.73
2023-05-02T17:58:44.541Z,49.54
2023-05-02T18:03:48.651Z,50.56
2023-05-02T18:08:54.009Z,53.80
2023-05-02T18:14:01.837Z,53.50
2023-05-02T18:19:06.134Z,53.04
2023-05-02T18:24:11.399Z,57.43
2023-05-02T18:29:15.819Z,59.13
2023-05-02T18:34:20.244Z,62.49
2023-05-02T18:39:25.728Z,63.02
2023-05-02T18:44:29.807Z,68.28
2023-05-02T18:49:35.733Z,72.00
2023-05-02T18:54:41.079Z,65.55
2023-05-02T18:59:45.021Z,62.74
2023-05-02T19:04:49.277Z,62.51
2023-05-02T19:09:54.559Z,61.11
2023-05-02T19:14:58.573Z,60.66
2023-05-02T19:20:02.460Z,61.68
2023-05-02T19:25:12.994Z,66.89
2023-05-02T19:30:18.978Z,67.89
2023-05-02T19:35:24.333Z,71.63
2023-05-02T19:40:31.085Z,73.94
2023-05-02T19:45:37.101Z,72.00
2023-05-02T19:50:43.040Z,73.14
2023-05-02T19:55:48.602Z,72.88
2023-05-02T20:00:52.885Z,73.43
2023-05-02T20:05:58.437Z,72.07
2023-05-02T20:11:07.184Z,72.88
2023-05-02T20:16:13.119Z,70.98
2023-05-02T20:21:17.453Z,69.46
2023-05-02T20:26:22.756Z,69.08
2023-05-02T20:31:27.114Z,69.37
2023-05-02T20:36:32.338Z,66.05
2023-05-02T20:41:37.827Z,69.57
2023-05-02T20:46:41.799Z,65.78
2023-05-02T20:51:47.214Z,66.58
2023-05-02T20:56:52.545Z,69.14
2023-05-02T21:01:56.643Z,67.57
2023-05-02T21:07:01.072Z,66.95
2023-05-02T21:12:06.706Z,65.04
2023-05-02T21:17:10.613Z,65.86
2023-05-02T21:22:14.808Z,66.06
2023-05-02T21:27:20.302Z,64.67
2023-05-02T21:32:27.980Z,65.38
2023-05-02T21:37:32.078Z,65.82
2023-05-02T21:42:37.363Z,64.75
2023-05-02T21:47:41.312Z,62.38
2023-05-02T21:52:46.964Z,62.15
2023-05-02T21:57:52.232Z,60.65
2023-05-02T22:02:56.500Z,58.90
2023-05-02T22:08:00.855Z,56.18
2023-05-02T22:13:06.661Z,54.81
2023-05-02T22:18:10.722Z,55.59
2023-05-02T22:23:14.773Z,53.66
2023-05-02T22:28:20.421Z,51.88
2023-05-02T22:33:24.318Z,52.66
2023-05-02T22:38:28.341Z,53.86
2023-05-02T22:43:33.860Z,54.00
2023-05-02T22:48:37.776Z,53.72
2023-05-02T22:53:42.011Z,55.82
2023-05-02T22:58:51.241Z,54.37
2023-05-02T23:03:55.262Z,55.41
2023-05-02T23:08:59.466Z,55.46
2023-05-02T23:14:08.310Z,55.15
2023-05-02T23:19:12.352Z,56.49
2023-05-02T23:24:16.366Z,56.07
2023-05-02T23:29:21.650Z,56.76
2023-05-02T23:34:29.278Z,58.43
2023-05-02T23:39:33.859Z,57.96
2023-05-02T23:44:39.325Z,58.02
2023-05-02T23:49:43.321Z,57.84
2023-05-02T23:54:47.514Z,60.37
2023-05-02T23:59:53.478Z,58.79
